createdAt,value
2022-09-02T00:01:20.105Z,50.66
2022-09-02T00:03:47.449Z,50.63
2022-09-02T00:06:15.338Z,50.58
2022-09-02T00:08:43.159Z,50.55
2022-09-02T00:11:16.453Z,50.51
2022-09-02T00:13:43.813Z,51.02
2022-09-02T00:16:11.507Z,51.31
2022-09-02T00:18:39.591Z,51.17
2022-09-02T00:21:13.569Z,50.88
2022-09-02T00:23:42.182Z,50.83
2022-09-02T00:26:08.805Z,50.84
2022-09-02T00:28:35.522Z,50.45
2022-09-02T00:31:02.203Z,50.11
2022-09-02T00:33:28.994Z,50.23
2022-09-02T00:35:55.737Z,50.41
2022-09-02T00:38:22.268Z,50.05
2022-09-02T00:40:50.554Z,50.32
2022-09-02T00:43:43.583Z,50.69
2022-09-02T00:46:11.671Z,50.37
2022-09-02T00:48:43.564Z,50.53
2022-09-02T00:51:11.809Z,50.46
2022-09-02T00:53:41.101Z,50.48
2022-09-02T00:56:15.909Z,50.28
2022-09-02T00:58:43.353Z,50.09
2022-09-02T01:01:11.664Z,50.44
2022-09-02T01:03:40.410Z,50.85
2022-09-02T01:09:47.377Z,50.54
2022-09-02T01:12:16.246Z,50.28
2022-09-02T01:14:42.960Z,50.11
2022-09-02T01:17:09.716Z,50.68
2022-09-02T01:19:40.375Z,50.08
2022-09-02T01:22:17.764Z,50.19
2022-09-02T01:24:44.237Z,50.27
2022-09-02T01:27:15.449Z,49.79
2022-09-02T01:29:41.961Z,50.42
2022-09-02T01:32:08.611Z,49.80
2022-09-02T01:34:35.121Z,50.35
2022-09-02T01:37:01.653Z,50.72
2022-09-02T01:39:28.197Z,50.29
2022-09-02T01:41:54.729Z,50.32
2022-09-02T01:44:21.793Z,50.87
2022-09-02T01:46:48.345Z,51.00
2022-09-02T01:49:14.824Z,50.80
2022-09-02T01:51:41.383Z,50.98
2022-09-02T01:54:07.878Z,51.00
2022-09-02T01:56:34.425Z,51.07
2022-09-02T01:59:02.365Z,51.15
2022-09-02T02:01:29.560Z,51.19
2022-09-02T02:03:56.125Z,51.90
2022-09-02T02:06:22.935Z,52.63
2022-09-02T02:08:49.391Z,52.22
2022-09-02T02:11:24.196Z,52.33
2022-09-02T02:13:50.762Z,53.01
2022-09-02T02:16:17.393Z,52.71
2022-09-02T02:18:43.902Z,52.79
2022-09-02T02:21:11.376Z,52.81
2022-09-02T02:23:37.926Z,52.72
2022-09-02T02:26:04.481Z,53.09
2022-09-02T02:28:31.127Z,53.31
2022-09-02T02:30:59.968Z,53.00
2022-09-02T02:33:36.031Z,53.26
2022-09-02T02:36:05.206Z,53.63
2022-09-02T02:38:33.953Z,53.23
2022-09-02T02:41:02.037Z,53.32
2022-09-02T02:43:28.601Z,53.69
2022-09-02T02:45:55.108Z,53.75
2022-09-02T02:48:22.170Z,53.46
2022-09-02T02:50:48.722Z,53.64
2022-09-02T02:53:17.493Z,53.86
2022-09-02T02:55:44.898Z,53.07
2022-09-02T02:58:17.129Z,53.26
2022-09-02T03:00:46.218Z,53.57
2022-09-02T03:03:12.809Z,53.75
2022-09-02T03:05:40.039Z,53.64
2022-09-02T03:08:08.648Z,53.45
2022-09-02T03:10:36.468Z,53.94
2022-09-02T03:13:03.374Z,53.83
2022-09-02T03:15:30.261Z,53.82
2022-09-02T03:17:57.092Z,54.37
2022-09-02T03:20:24.914Z,54.34
2022-09-02T03:22:55.291Z,54.70
2022-09-02T03:25:23.195Z,54.36
2022-09-02T03:27:51.575Z,54.49
2022-09-02T03:30:25.193Z,54.49
2022-09-02T03:32:58.389Z,54.52
2022-09-02T03:35:28.451Z,54.64
2022-09-02T03:37:55.789Z,54.58
2022-09-02T03:40:26.410Z,54.53
2022-09-02T03:42:59.276Z,54.74
2022-09-02T03:45:26.794Z,55.01
2022-09-02T03:47:55.818Z,55.03
2022-09-02T03:50:30.120Z,54.95
2022-09-02T03:52:57.671Z,55.03
2022-09-02T03:55:24.526Z,55.23
2022-09-02T03:57:51.026Z,55.26
2022-09-02T04:00:20.539Z,55.23
2022-09-02T04:02:50.227Z,54.99
2022-09-02T04:05:17.711Z,55.13
2022-09-02T04:07:46.902Z,55.61
2022-09-02T04:10:14.561Z,54.96
2022-09-02T04:12:41.186Z,55.20
2022-09-02T04:15:09.823Z,55.17
2022-09-02T04:17:38.223Z,55.36
2022-09-02T04:20:07.166Z,55.58
2022-09-02T04:22:34.137Z,55.68
2022-09-02T04:25:00.647Z,55.32
2022-09-02T04:27:27.581Z,55.63
2022-09-02T04:29:54.116Z,56.19
2022-09-02T04:32:21.708Z,56.02
2022-09-02T04:34:49.853Z,55.91
2022-09-02T04:37:16.765Z,56.01
2022-09-02T04:39:43.318Z,56.09
2022-09-02T04:42:09.798Z,55.94
2022-09-02T04:44:36.462Z,56.03
2022-09-02T04:47:03.065Z,55.67
2022-09-02T04:49:32.110Z,55.78
2022-09-02T04:52:00.204Z,55.60
2022-09-02T04:54:27.199Z,55.81
2022-09-02T04:56:53.945Z,55.63
2022-09-02T04:59:21.296Z,55.85
2022-09-02T05:01:49.849Z,55.76
2022-09-02T05:04:16.660Z,55.62
2022-09-02T05:06:44.545Z,55.37
2022-09-02T05:09:11.633Z,55.49
2022-09-02T05:11:38.748Z,56.10
2022-09-02T05:14:07.127Z,56.14
2022-09-02T05:16:40.105Z,56.24
2022-09-02T05:19:09.696Z,55.74
2022-09-02T05:21:40.593Z,56.80
2022-09-02T05:24:07.108Z,56.29
2022-09-02T05:26:36.184Z,55.87
2022-09-02T05:29:06.963Z,55.48
2022-09-02T05:31:34.128Z,55.42
2022-09-02T05:34:00.796Z,55.89
2022-09-02T05:36:27.408Z,55.42
2022-09-02T05:38:54.397Z,55.43
2022-09-02T05:41:23.542Z,55.72
2022-09-02T05:43:52.474Z,55.75
2022-09-02T05:46:22.315Z,55.32
2022-09-02T05:49:17.702Z,54.82
2022-09-02T05:51:50.067Z,55.23
2022-09-02T05:54:24.109Z,55.51
2022-09-02T05:56:53.832Z,55.24
2022-09-02T05:59:22.190Z,55.39
2022-09-02T06:01:49.484Z,54.96
2022-09-02T06:04:17.187Z,55.75
2022-09-02T06:06:43.771Z,55.96
2022-09-02T06:09:12.779Z,56.18
2022-09-02T06:11:44.611Z,56.15
2022-09-02T06:14:13.961Z,55.90
2022-09-02T06:16:42.045Z,55.78
2022-09-02T06:19:09.115Z,55.91
2022-09-02T06:21:37.716Z,55.81
2022-09-02T06:24:08.850Z,54.90
2022-09-02T06:26:37.018Z,55.72
2022-09-02T06:29:04.987Z,55.14
2022-09-02T06:31:34.599Z,54.74
2022-09-02T06:34:01.428Z,54.30
2022-09-02T06:36:31.276Z,54.34
2022-09-02T06:39:00.190Z,54.37
2022-09-02T06:41:30.332Z,54.38
2022-09-02T06:44:00.093Z,53.73
2022-09-02T06:46:30.668Z,53.95
2022-09-02T06:48:57.529Z,53.63
2022-09-02T06:51:30.317Z,53.55
2022-09-02T06:53:57.052Z,53.56
2022-09-02T06:56:23.906Z,53.45
2022-09-02T06:58:50.598Z,53.06
2022-09-02T07:01:26.289Z,52.86
2022-09-02T07:04:11.567Z,52.62
2022-09-02T07:06:42.276Z,52.37
2022-09-02T07:09:11.542Z,51.75
2022-09-02T07:11:38.650Z,50.81
2022-09-02T07:14:05.433Z,49.69
2022-09-02T07:16:36.763Z,48.79
2022-09-02T07:19:05.635Z,46.99
2022-09-02T07:21:36.255Z,46.48
2022-09-02T07:24:03.145Z,46.67
2022-09-02T07:26:29.936Z,47.07
2022-09-02T07:28:56.553Z,47.17
2022-09-02T07:31:23.580Z,47.02
2022-09-02T07:33:50.756Z,46.09
2022-09-02T07:36:21.483Z,43.93
2022-09-02T07:38:48.242Z,42.26
2022-09-02T07:41:14.813Z,41.39
2022-09-02T07:43:41.394Z,38.90
2022-09-02T07:46:08.141Z,37.96
2022-09-02T07:48:34.920Z,37.57
2022-09-02T07:51:02.021Z,38.85
2022-09-02T07:53:29.179Z,39.33
2022-09-02T07:55:55.927Z,39.40
2022-09-02T07:58:23.666Z,41.16
2022-09-02T08:00:51.208Z,40.06
2022-09-02T08:03:17.942Z,39.21
2022-09-02T08:05:47.064Z,38.04
2022-09-02T08:08:15.967Z,36.70
2022-09-02T08:10:42.952Z,36.83
2022-09-02T08:13:10.515Z,37.28
2022-09-02T08:15:37.298Z,37.27
2022-09-02T08:18:05.012Z,35.94
2022-09-02T08:20:31.506Z,36.88
2022-09-02T08:23:10.652Z,38.54
2022-09-02T08:25:39.471Z,38.08
2022-09-02T08:28:05.967Z,37.54
2022-09-02T08:30:32.618Z,37.40
2022-09-02T08:32:59.276Z,36.51
2022-09-02T08:35:25.966Z,34.56
2022-09-02T08:37:52.506Z,35.01
2022-09-02T08:40:28.776Z,36.24
2022-09-02T08:42:56.459Z,35.46
2022-09-02T08:45:32.438Z,35.62
2022-09-02T08:48:12.805Z,35.04
2022-09-02T08:50:43.716Z,33.71
2022-09-02T08:53:19.227Z,34.20
2022-09-02T08:55:49.126Z,33.11
2022-09-02T08:58:18.931Z,31.58
2022-09-02T09:01:00.732Z,32.43
2022-09-02T09:03:37.143Z,33.10
2022-09-02T09:06:23.541Z,32.28
2022-09-02T09:09:17.534Z,33.45
2022-09-02T09:12:01.806Z,32.64
2022-09-02T09:14:52.629Z,31.66
2022-09-02T09:17:28.226Z,31.76
2022-09-02T09:19:59.046Z,31.22
2022-09-02T09:22:31.338Z,30.85
2022-09-02T09:24:58.739Z,29.49
2022-09-02T09:27:25.984Z,35.17
2022-09-02T09:29:53.335Z,30.30
2022-09-02T09:32:30.122Z,30.73
2022-09-02T09:35:03.517Z,29.62
2022-09-02T09:37:37.406Z,30.88
2022-09-02T09:40:20.530Z,29.27
2022-09-02T09:43:14.516Z,28.44
2022-09-02T09:45:51.723Z,30.31
2022-09-02T09:48:30.700Z,28.84
2022-09-02T09:50:57.226Z,29.47
2022-09-02T09:53:25.649Z,31.35
2022-09-02T09:55:56.805Z,30.39
2022-09-02T09:58:30.819Z,29.16
2022-09-02T10:01:00.529Z,28.54
2022-09-02T10:03:32.975Z,29.01
2022-09-02T10:06:18.343Z,29.67
2022-09-02T10:09:00.334Z,31.69
2022-09-02T10:11:29.675Z,30.73
2022-09-02T10:14:02.213Z,29.27
2022-09-02T10:16:37.712Z,28.62
2022-09-02T10:19:10.202Z,29.19
2022-09-02T10:22:04.400Z,30.19
2022-09-02T10:25:19.252Z,29.86
2022-09-02T10:28:14.151Z,29.94
2022-09-02T10:30:57.580Z,31.19
2022-09-02T10:33:44.591Z,32.14
2022-09-02T10:36:28.650Z,32.66
2022-09-02T10:39:04.290Z,32.95
2022-09-02T10:45:07.331Z,31.06
2022-09-02T10:47:38.510Z,29.11
2022-09-02T10:50:22.980Z,29.80
2022-09-02T10:53:17.248Z,30.19
2022-09-02T10:56:05.492Z,31.79
2022-09-02T10:58:55.882Z,30.99
2022-09-02T11:01:28.925Z,32.13
2022-09-02T11:04:22.641Z,33.06
2022-09-02T11:07:02.533Z,33.21
2022-09-02T11:09:50.441Z,32.21
2022-09-02T11:12:32.311Z,32.15
2022-09-02T11:15:20.162Z,32.98
2022-09-02T11:18:00.542Z,32.20
2022-09-02T11:20:38.850Z,32.26
2022-09-02T11:23:30.663Z,32.42
2022-09-02T11:26:10.705Z,32.25
2022-09-02T11:29:14.194Z,31.76
2022-09-02T11:31:44.390Z,31.51
2022-09-02T11:34:20.040Z,31.21
2022-09-02T11:36:46.686Z,32.21
2022-09-02T11:39:30.632Z,32.48
2022-09-02T11:42:00.213Z,32.17
2022-09-02T11:44:56.769Z,31.86
2022-09-02T11:47:27.510Z,32.68
2022-09-02T11:50:21.842Z,31.59
2022-09-02T11:52:54.206Z,31.38
2022-09-02T11:55:39.982Z,32.19
2022-09-02T11:58:06.587Z,32.06
2022-09-02T12:00:55.779Z,28.25
2022-09-02T12:03:46.648Z,26.34
2022-09-02T12:06:19.346Z,25.83
2022-09-02T12:08:46.860Z,27.49
2022-09-02T12:11:39.772Z,27.12
2022-09-02T12:14:09.987Z,28.43
2022-09-02T12:16:40.845Z,30.10
2022-09-02T12:19:10.669Z,30.87
2022-09-02T12:22:15.279Z,29.95
2022-09-02T12:25:26.992Z,29.75
2022-09-02T12:28:10.869Z,29.87
2022-09-02T12:31:02.079Z,29.58
2022-09-02T12:33:34.798Z,30.11
2022-09-02T12:36:04.757Z,29.85
2022-09-02T12:38:32.596Z,29.77
2022-09-02T12:41:04.956Z,29.93
2022-09-02T12:44:02.250Z,28.51
2022-09-02T12:46:48.471Z,27.81
2022-09-02T12:49:46.836Z,28.99
2022-09-02T12:52:36.195Z,29.34
2022-09-02T12:55:18.231Z,30.03
2022-09-02T12:57:48.332Z,30.01
2022-09-02T13:00:27.942Z,29.33
2022-09-02T13:03:14.204Z,29.25
2022-09-02T13:05:49.748Z,29.28
2022-09-02T13:08:51.038Z,29.49
2022-09-02T13:11:39.044Z,30.29
2022-09-02T13:14:27.264Z,29.10
2022-09-02T13:17:36.607Z,28.94
2022-09-02T13:20:20.076Z,29.72
2022-09-02T13:22:55.532Z,29.66
2022-09-02T13:25:46.377Z,29.14
2022-09-02T13:28:18.778Z,28.78
2022-09-02T13:31:22.202Z,29.18
2022-09-02T13:34:11.795Z,29.39
2022-09-02T13:36:44.748Z,29.77
2022-09-02T13:39:19.612Z,29.56
2022-09-02T13:41:47.454Z,30.49
2022-09-02T13:44:27.030Z,30.88
2022-09-02T13:47:02.397Z,30.21
2022-09-02T13:49:37.896Z,30.67
2022-09-02T13:52:11.807Z,29.96
2022-09-02T13:54:48.359Z,29.82
2022-09-02T13:57:21.484Z,29.81
2022-09-02T13:59:51.696Z,29.63
2022-09-02T14:02:35.752Z,29.83
2022-09-02T14:05:22.622Z,29.59
2022-09-02T14:07:53.372Z,30.29
2022-09-02T14:10:23.704Z,30.71
2022-09-02T14:12:51.338Z,30.47
2022-09-02T14:15:31.147Z,31.14
2022-09-02T14:18:30.868Z,30.83
2022-09-02T14:21:09.733Z,30.95
2022-09-02T14:23:40.453Z,31.47
2022-09-02T14:26:07.156Z,30.98
2022-09-02T14:28:35.510Z,29.40
2022-09-02T14:31:08.419Z,28.75
2022-09-02T14:33:43.368Z,27.86
2022-09-02T14:36:17.737Z,27.73
2022-09-02T14:38:47.023Z,30.39
2022-09-02T14:41:20.322Z,30.95
2022-09-02T14:43:50.397Z,30.45
2022-09-02T14:46:32.976Z,30.56
2022-09-02T14:48:59.416Z,30.12
2022-09-02T14:51:47.785Z,30.62
2022-09-02T14:54:37.631Z,30.93
2022-09-02T14:57:04.976Z,31.30
2022-09-02T14:59:31.563Z,30.96
2022-09-02T15:01:59.377Z,31.16
2022-09-02T15:04:26.881Z,31.45
2022-09-02T15:06:53.476Z,31.85
2022-09-02T15:09:20.168Z,31.26
2022-09-02T15:11:53.280Z,30.55
2022-09-02T15:14:19.787Z,30.96
2022-09-02T15:16:46.317Z,30.74
2022-09-02T15:19:12.844Z,30.66
2022-09-02T15:21:40.395Z,30.70
2022-09-02T15:24:07.001Z,30.52
2022-09-02T15:26:33.450Z,30.40
2022-09-02T15:28:59.920Z,30.30
2022-09-02T15:31:26.547Z,30.58
2022-09-02T15:33:53.137Z,30.73
2022-09-02T15:36:21.167Z,30.78
2022-09-02T15:38:47.668Z,30.34
2022-09-02T15:41:23.362Z,31.01
2022-09-02T15:43:53.744Z,30.75
2022-09-02T15:46:25.833Z,30.90
2022-09-02T15:48:53.334Z,30.57
2022-09-02T15:51:22.766Z,29.98
2022-09-02T15:54:05.132Z,30.35
2022-09-02T15:56:33.373Z,29.74
2022-09-02T15:59:02.166Z,29.94
2022-09-02T16:01:34.110Z,30.18
2022-09-02T16:04:02.450Z,30.40
2022-09-02T16:06:29.771Z,30.13
2022-09-02T16:08:56.569Z,29.61
2022-09-02T16:11:23.793Z,29.56
2022-09-02T16:13:50.890Z,29.51
2022-09-02T16:16:17.792Z,29.35
2022-09-02T16:18:45.252Z,29.54
2022-09-02T16:21:12.997Z,29.26
2022-09-02T16:23:39.679Z,29.71
2022-09-02T16:26:22.923Z,29.73
2022-09-02T16:28:51.132Z,29.67
2022-09-02T16:31:20.013Z,29.92
2022-09-02T16:33:55.706Z,29.73
2022-09-02T16:36:23.902Z,29.99
2022-09-02T16:38:53.450Z,30.43
2022-09-02T16:41:28.263Z,30.49
2022-09-02T16:43:57.093Z,30.39
2022-09-02T16:46:24.935Z,30.74
2022-09-02T16:48:52.044Z,30.74
2022-09-02T16:51:18.913Z,30.95
2022-09-02T16:53:46.413Z,30.93
2022-09-02T16:56:14.322Z,30.72
2022-09-02T16:58:41.579Z,30.78
2022-09-02T17:01:13.817Z,30.77
2022-09-02T17:03:41.843Z,30.92
2022-09-02T17:06:09.068Z,31.33
2022-09-02T17:08:35.533Z,30.96
2022-09-02T17:11:22.315Z,31.29
2022-09-02T17:13:55.873Z,31.38
2022-09-02T17:16:25.006Z,31.79
2022-09-02T17:18:52.145Z,31.61
2022-09-02T17:21:25.360Z,31.19
2022-09-02T17:23:52.310Z,31.28
2022-09-02T17:26:21.544Z,31.39
2022-09-02T17:28:48.770Z,31.40
2022-09-02T17:31:22.009Z,31.02
2022-09-02T17:33:49.660Z,31.31
2022-09-02T17:36:16.773Z,31.71
2022-09-02T17:38:43.590Z,32.06
2022-09-02T17:41:28.960Z,32.01
2022-09-02T17:43:55.528Z,32.10
2022-09-02T17:46:22.319Z,32.44
2022-09-02T17:49:15.457Z,32.52
2022-09-02T17:51:35.685Z,32.54
2022-09-02T17:54:02.783Z,32.62
2022-09-02T17:56:32.213Z,32.63
2022-09-02T17:59:27.788Z,33.01
2022-09-02T18:02:12.733Z,33.22
2022-09-02T18:04:42.029Z,33.48
2022-09-02T18:07:28.507Z,33.61
2022-09-02T18:09:55.424Z,33.46
2022-09-02T18:12:21.954Z,33.22
2022-09-02T18:14:54.615Z,33.70
2022-09-02T18:17:40.414Z,33.76
2022-09-02T18:20:10.526Z,34.09
2022-09-02T18:22:49.791Z,34.10
2022-09-02T18:25:31.541Z,34.18
2022-09-02T18:28:06.874Z,34.27
2022-09-02T18:30:48.994Z,34.49
2022-09-02T18:33:56.207Z,35.07
2022-09-02T18:36:48.972Z,34.68
2022-09-02T18:39:21.234Z,35.19
2022-09-02T18:42:26.227Z,35.08
2022-09-02T18:45:04.989Z,35.01
2022-09-02T18:47:36.446Z,35.35
2022-09-02T18:50:05.984Z,35.28
2022-09-02T18:52:34.558Z,35.12
2022-09-02T18:55:09.944Z,35.34
2022-09-02T18:57:43.817Z,35.33
2022-09-02T19:00:13.380Z,35.50
2022-09-02T19:03:02.413Z,35.51
2022-09-02T19:05:31.196Z,36.18
2022-09-02T19:08:27.098Z,35.95
2022-09-02T19:11:01.791Z,35.84
2022-09-02T19:13:30.073Z,36.38
2022-09-02T19:16:04.118Z,35.99
2022-09-02T19:18:31.544Z,36.45
2022-09-02T19:20:58.849Z,36.32
2022-09-02T19:23:26.880Z,36.92
2022-09-02T19:25:53.621Z,36.59
2022-09-02T19:28:22.053Z,36.66
2022-09-02T19:30:51.023Z,36.75
2022-09-02T19:33:17.636Z,36.92
2022-09-02T19:35:49.085Z,36.89
2022-09-02T19:38:18.615Z,37.32
2022-09-02T19:40:49.363Z,37.38
2022-09-02T19:43:16.726Z,37.04
2022-09-02T19:45:44.156Z,37.26
2022-09-02T19:48:11.513Z,37.03
2022-09-02T19:50:43.557Z,37.24
2022-09-02T19:53:16.219Z,37.43
2022-09-02T19:55:42.972Z,37.55
2022-09-02T19:58:09.507Z,37.82
2022-09-02T20:00:36.171Z,37.49
2022-09-02T20:03:03.281Z,37.74
2022-09-02T20:05:29.891Z,37.86
2022-09-02T20:07:56.520Z,38.47
2022-09-02T20:10:28.069Z,38.31
2022-09-02T20:12:56.916Z,38.49
2022-09-02T20:15:23.465Z,38.72
2022-09-02T20:17:50.096Z,38.71
2022-09-02T20:20:19.366Z,38.66
2022-09-02T20:22:55.178Z,38.86
2022-09-02T20:25:31.203Z,39.05
2022-09-02T20:28:16.227Z,38.81
2022-09-02T20:30:46.901Z,38.82
2022-09-02T20:33:19.570Z,38.70
2022-09-02T20:35:52.187Z,39.13
2022-09-02T20:38:46.081Z,39.48
2022-09-02T20:41:47.056Z,39.46
2022-09-02T20:44:38.579Z,39.28
2022-09-02T20:47:27.598Z,39.53
2022-09-02T20:50:02.939Z,39.26
2022-09-02T20:52:44.545Z,39.73
2022-09-02T20:55:25.904Z,39.66
2022-09-02T20:57:52.427Z,39.91
2022-09-02T21:00:22.703Z,39.80
2022-09-02T21:02:55.526Z,39.80
2022-09-02T21:05:43.834Z,39.95
2022-09-02T21:08:24.395Z,39.88
2022-09-02T21:11:01.215Z,40.07
2022-09-02T21:13:49.989Z,40.09
2022-09-02T21:16:34.592Z,39.96
2022-09-02T21:19:29.412Z,40.45
2022-09-02T21:22:03.311Z,40.38
2022-09-02T21:24:39.653Z,40.40
2022-09-02T21:27:19.481Z,40.40
2022-09-02T21:29:53.725Z,40.41
2022-09-02T21:32:32.651Z,40.19
2022-09-02T21:35:17.294Z,40.43
2022-09-02T21:37:45.195Z,40.73
2022-09-02T21:40:19.132Z,40.56
2022-09-02T21:43:27.085Z,40.89
2022-09-02T21:45:56.421Z,40.98
2022-09-02T21:48:32.210Z,41.16
2022-09-02T21:51:01.019Z,41.14
2022-09-02T21:53:53.765Z,41.24
2022-09-02T21:56:41.260Z,41.02
2022-09-02T21:59:32.273Z,41.15
2022-09-02T22:02:10.411Z,41.26
2022-09-02T22:04:48.697Z,41.32
2022-09-02T22:07:25.647Z,41.42
2022-09-02T22:10:19.666Z,41.51
2022-09-02T22:12:52.525Z,41.34
2022-09-02T22:15:35.101Z,41.37
2022-09-02T22:18:10.947Z,41.48
2022-09-02T22:20:42.302Z,41.64
2022-09-02T22:23:23.381Z,41.81
2022-09-02T22:25:52.736Z,41.74
2022-09-02T22:28:39.295Z,41.64
2022-09-02T22:31:12.673Z,41.55
2022-09-02T22:33:51.332Z,42.00
2022-09-02T22:36:49.638Z,41.93
2022-09-02T22:39:17.477Z,41.89
2022-09-02T22:41:55.523Z,41.66
2022-09-02T22:44:58.719Z,41.97
2022-09-02T22:47:43.912Z,41.96
2022-09-02T22:50:34.718Z,41.89
2022-09-02T22:53:01.288Z,42.12
2022-09-02T22:55:38.258Z,42.22
2022-09-02T22:58:16.038Z,42.29
2022-09-02T23:00:51.202Z,42.42
2022-09-02T23:03:36.551Z,42.74
2022-09-02T23:06:14.871Z,43.01
2022-09-02T23:08:43.849Z,43.06
2022-09-02T23:11:30.857Z,43.26
2022-09-02T23:14:35.545Z,43.62
2022-09-02T23:17:07.917Z,43.38
2022-09-02T23:19:56.247Z,43.31
2022-09-02T23:22:41.900Z,43.17
2022-09-02T23:25:37.678Z,43.67
2022-09-02T23:28:15.427Z,43.85
2022-09-02T23:30:52.550Z,43.27
2022-09-02T23:33:38.973Z,43.48
2022-09-02T23:36:21.508Z,43.41
2022-09-02T23:39:06.092Z,43.58
2022-09-02T23:41:36.165Z,43.97
2022-09-02T23:44:06.768Z,43.74
2022-09-02T23:46:39.429Z,44.04
2022-09-02T23:49:36.228Z,43.93
2022-09-02T23:52:21.977Z,44.26
2022-09-02T23:55:19.509Z,44.02
2022-09-02T23:58:23.017Z,44.23
